Azle, Texas
Current Conditions -  °F | °C
As of 1:52 AM on Tuesday 21 Oct 2014 (Local Time) from KNFW Reporting Station
Clear Clear  
Wind Chill: 69°   Ceiling: Unl
Heat Index: 69°   Visibility: 10mi
Dew Point: 57°   Wind: 3mph
Humidity: 65%   Direction: 180°S
Pressure: 30.08"   Gusts: NA
Location:  32.88°N, 97.54°W
Report Text: KNFW 210652Z AUTO 18003KT 10SM CLR 21/14 A3008 RMK AO2 SLP170 T02060139 CHINO N VISNO N $
Loading
Personal Weather Stations






























Interactive Weather Map New forecast layout! Learn more

10-Day Weather Forecast

Advertisements
Track Severe Weather on mobile